Tyro, Arkansas
Current Conditions -  °F | °C
As of 5:53 AM on Wednesday 28 Jan 2015 (Local Time) from KLLQ Reporting Station
Clear Clear  
Wind Chill: 34°   Ceiling: Unl
Heat Index: 38°   Visibility: 10mi
Dew Point: 34°   Wind: 5mph
Humidity: 86%   Direction: 100°E
Pressure: 30.21"   Gusts: NA
Location:  33.8021°N, 91.3887°W
Report Text: KLLQ 281153Z AUTO 10004KT 10SM CLR 03/01 A3021 RMK AO2 SLP230 T00330011 10072 20022 51006
Loading
Personal Weather Stations






























Interactive Weather Map New forecast layout! Learn more

10-Day Weather Forecast

Advertisements
Track Severe Weather on mobile